Metar Cercanos

 

LEPA - Palma De Mallorc, Spain
Distance from station: ONO 38km
Actualización: 22/02/2018 05:30
Few Clouds
Few Clouds
 Viento del varies
Viento: varies 2 km/h
Temperatura: 5°C
Rocío: 2°C
Humedad: 81%
Barómetro: 1006 hPa
Clouds: Few Clouds
Visibility: 10 km
Cloud details: Few Clouds 762 m
2018/02/22 04:30 LEPA 220430Z VRB01KT 9999 FEW025 05/02 Q1006 NOSIG
LEMH - Mahon/Menorca Is, Spain
Distance from station: ENE 105km
Actualización: 22/02/2018 05:30
Muy nuboso
Muy nuboso
 Viento del N
Viento: N 22 km/h
Temperatura: 7°C
Sensación frio: 4°C
Rocío: 1°C
Humedad: 66%
Barómetro: 1004 hPa
Clouds: Muy nuboso
Visibility: 6 km
Cloud details: Few Clouds 975 m
Muy nuboso 1402 m
2018/02/22 04:30 LEMH 220430Z AUTO 36012KT 340V040 6000 FEW032/// BKN046/// 07/01 Q1004
 
LEIB - Ibiza/Es Codola, Spain
Distance from station: OSO 165km
Actualización: 22/02/2018 00:00
NOT Current
Few Clouds
Few Clouds
 Viento del NNE
Viento: NNE 11 km/h
Temperatura: 7°C
Sensación frio: 5°C
Rocío: 4°C
Humedad: 81%
Barómetro: 1008 hPa
Clouds: Few Clouds
Visibility: 10 km
Cloud details: Few Clouds 1067 m
2018/02/21 23:00 LEIB 212300Z 02006KT 9999 FEW035 07/04 Q1008 NOSIG
LEBL - Barcelona Airpor, Spain
Distance from station: NNO 225km
Actualización: 22/02/2018 05:30
Few Clouds
Few Clouds
 Viento del NNO
Viento: NNO 13 km/h
Temperatura: 3°C
Sensación frio: -1°C
Rocío: -1°C
Humedad: 75%
Barómetro: 1006 hPa
Clouds: Few Clouds
Visibility: 10 km
Cloud details: Few Clouds 762 m
2018/02/22 04:30 LEBL 220430Z 33007KT 9999 FEW025 03/M01 Q1006 NOSIG
 
LEVC - Valencia (civ/Mi, Spain
Distance from station: NO 188km
Actualización: 22/02/2018 05:30
Few Clouds
Few Clouds
 Viento del O
Viento: O 9 km/h
Temperatura: 2°C
Sensación frio: -1°C
Rocío: -2°C
Humedad: 75%
Barómetro: 1008 hPa
Clouds: Few Clouds
Visibility: 10 km
Cloud details: Few Clouds 762 m
2018/02/22 04:30 LEVC 220430Z 27005KT 9999 FEW025 02/M02 Q1008 NOSIG
LEGE - Gerona/Costa Bra, Spain
Distance from station: N 276km
Actualización: 22/02/2018 05:30
Despejado
Despejado
 Viento del calm
Viento: Calma
Temperatura: -2°C
Rocío: -2°C
Humedad: 100%
Barómetro: 1006 hPa
Resumen: Despejado
Visibility: greater than 10 km
2018/02/22 04:30 LEGE 220430Z 00000KT CAVOK M02/M02 Q1006
 
LEAL - Alicante/El Alte, Spain
Distance from station: OSO 344km
Actualización: 22/02/2018 05:30
Despejado
Despejado
 Viento del O
Viento: O 6 km/h
Temperatura: 5°C
Rocío: 3°C
Humedad: 87%
Barómetro: 1007 hPa
Resumen: Despejado
Visibility: greater than 10 km
2018/02/22 04:30 LEAL 220430Z 28003KT 250V330 CAVOK 05/03 Q1007 NOSIG
LEAM - Almeria Airport, Spain
Distance from station: SSO 56km
Actualización: 22/02/2018 05:30
Muy nuboso
Muy nuboso
 Viento del NNO
Viento: NNO 13 km/h
Temperatura: 11°C
Rocío: 4°C
Humedad: 62%
Barómetro: 1007 hPa
Clouds: Muy nuboso
Visibility: 10 km
Cloud details: Few Clouds 305 m
Muy nuboso 2134 m
2018/02/22 04:30 LEAM 220430Z 33007KT 9999 FEW010 BKN070 11/04 Q1007
 
LEZG - Zaragoza (mil/Ci, Spain
Distance from station: NO 431km
Actualización: 22/02/2018 05:30
Few Clouds
Few Clouds
 Viento del O
Viento: O 35 km/h
Temperatura: 3°C
Sensación frio: -3°C
Rocío: -2°C
Humedad: 70%
Barómetro: 1008 hPa
Clouds: Few Clouds
Visibility: 10 km
Cloud details: Few Clouds 1219 m
2018/02/22 04:30 LEZG 220430Z 28019KT 9999 FEW040 03/M02 Q1008
LEMD - Madrid/Barajas, Spain
Distance from station: ONO 234km
Actualización: 22/02/2018 05:30
Despejado
Despejado
 Viento del varies
Viento: varies 2 km/h
Temperatura: -2°C
Rocío: -7°C
Humedad: 69%
Barómetro: 1009 hPa
Resumen: Despejado
Visibility: greater than 10 km
2018/02/22 04:30 LEMD 220430Z VRB01KT CAVOK M02/M07 Q1009 NOSIG
 
LEGR - Granada Airport, Spain
Distance from station: OSO 62km
Actualización: 22/02/2018 05:30
Despejado
Despejado
 Viento del S
Viento: S 4 km/h
Temperatura: -1°C
Rocío: -3°C
Humedad: 86%
Barómetro: 1007 hPa
Clouds: Despejado
Visibility: 10 km
2018/02/22 04:30 LEGR 220430Z AUTO 19002KT 9999 NCD M01/M03 Q1007
LEMG - Malaga (civ/Mil), Spain
Distance from station: OSO 227km
Actualización: 22/02/2018 05:30
Few Clouds
Few Clouds
 Viento del ONO
Viento: ONO 15 km/h
Temperatura: 5°C
Sensación frio: 2°C
Rocío: 0°C
Humedad: 70%
Barómetro: 1008 hPa
Clouds: Few Clouds
Visibility: 10 km
Cloud details: Few Clouds 914 m
2018/02/22 04:30 LEMG 220430Z 30008KT 9999 FEW030 05/00 Q1008 NOSIG
 
LEZL - Sevilla (civ/Mil, Spain
Distance from station: S 318km
Actualización: 22/02/2018 05:30
Despejado
Despejado
 Viento del varies
Viento: varies 4 km/h
Temperatura: 6°C
Rocío: -1°C
Humedad: 61%
Barómetro: 1009 hPa
Resumen: Despejado
Visibility: greater than 10 km
2018/02/22 04:30 LEZL 220430Z VRB02KT CAVOK 06/M01 Q1009 NOSIG
LEVT - Vitoria, Spain
Distance from station: NO 226km
Actualización: 22/02/2018 05:30
Muy nuboso
Muy nuboso
 Viento del N
Viento: N 20 km/h
Temperatura: 2°C
Sensación frio: -3°C
Rocío: -2°C
Humedad: 75%
Barómetro: 1013 hPa
Clouds: Muy nuboso
Visibility: 10 km
Cloud details: Muy nuboso 975 m
Muy nuboso 1189 m
2018/02/22 04:30 LEVT 220430Z 36011KT 9999 BKN032 BKN039 02/M02 Q1013
 
LEBB - Bilbao/Sondica, Spain
Distance from station: NNO 235km
Actualización: 22/02/2018 05:30
Muy nuboso
Muy nuboso
 Viento del NNE
Viento: NNE 9 km/h
Temperatura: 6°C
Sensación frio: 4°C
Rocío: 1°C
Humedad: 71%
Barómetro: 1015 hPa
Clouds: Muy nuboso
Visibility: 10 km
Cloud details: Muy nuboso 1372 m
2018/02/22 04:30 LEBB 220430Z 03005KT 9999 BKN045 06/01 Q1015 NOSIG
LESO - San Sebastian/Fu, Spain
Distance from station: N 231km
Actualización: 22/02/2018 05:30
Muy nuboso
Muy nuboso
 Viento del varies
Viento: varies 4 km/h
Temperatura: 4°C
Rocío: -1°C
Humedad: 70%
Barómetro: 1015 hPa
Clouds: Muy nuboso
Visibility: 7 km
Cloud details: Muy nuboso 1128 m
2018/02/22 04:30 LESO 220430Z VRB02KT 7000 BKN037 04/M01 Q1015
 
LEVD - Valladolid(Mil/C, Spain
Distance from station: ONO 239km
Actualización: 21/02/2018 21:30
NOT Current
Despejado
Despejado
 Viento del ENE
Viento: ENE 30 km/h
Temperatura: 1°C
Sensación frio: -5°C
Rocío: -4°C
Humedad: 70%
Barómetro: 1012 hPa
Resumen: Despejado
Visibility: greater than 10 km
2018/02/21 20:30 LEVD 212030Z 07016KT CAVOK 01/M04 Q1012
LESA - Salamanca (civ/M, Spain
Distance from station: ONO 349km
Actualización: 21/02/2018 19:00
NOT Current
Parcialmente nuboso
Parcialmente nuboso
 Viento del E
Viento: E 24 km/h
Temperatura: 6°C
Sensación frio: 2°C
Rocío: -4°C
Humedad: 49%
Barómetro: 1012 hPa
Clouds: Parcialmente nuboso
Visibility: 10 km
Cloud details: Parcialmente nuboso 1372 m
2018/02/21 18:00 LESA 211800Z 08013KT 040V100 9999 SCT045 06/M04 Q1012
 
LEXJ - Santander/Paraya, Spain
Distance from station: NNO 247km
Actualización: 22/02/2018 05:30
Parcialmente nuboso
Parcialmente nuboso
 Viento del calm
Viento: Calma
Temperatura: 5°C
Rocío: 3°C
Humedad: 87%
Barómetro: 1016 hPa
Clouds: Parcialmente nuboso
Visibility: 10 km
Cloud details: Parcialmente nuboso 1219 m
2018/02/22 04:30 LEXJ 220430Z 00000KT 9999 SCT040 05/03 Q1016
LEAS - Asturias/Aviles, Spain
Distance from station: NO 214km
Actualización: 22/02/2018 05:30
Despejado
Despejado
 Viento del varies
Viento: varies 4 km/h
Temperatura: 4°C
Rocío: 0°C
Humedad: 75%
Barómetro: 1015 hPa
Clouds: Despejado
Visibility: 7 km
2018/02/22 04:30 LEAS 220430Z AUTO VRB02KT 7000 NCD 04/00 Q1015
 
LECO - La Coruna/Alvedr, Spain
Distance from station: ONO 222km
Actualización: 22/02/2018 05:30
Despejado
Despejado
 Viento del varies
Viento: varies 4 km/h
Temperatura: 3°C
Rocío: 1°C
Humedad: 87%
Barómetro: 1013 hPa
Resumen: Despejado
Visibility: greater than 10 km
2018/02/22 04:30 LECO 220430Z VRB02KT CAVOK 03/01 Q1013 NOSIG
LEVX - Vigo/Peinador, Spain
Distance from station: O 214km
Actualización: 22/02/2018 05:30
Despejado
Despejado
 Viento del SSO
Viento: SSO 11 km/h
Temperatura: 4°C
Sensación frio: 1°C
Rocío: 1°C
Humedad: 81%
Barómetro: 1011 hPa
Resumen: Despejado
Visibility: greater than 10 km
2018/02/22 04:30 LEVX 220430Z 21006KT 170V240 CAVOK 04/01 Q1011 NOSIG